Time;durP1;ratioP1;P1;durP2;ratioP2;P2;SDS_P1;SDS_P2;PMS_P1;PMS_P2;Temp;Humidity;BMP_temperature;BMP_pressure;BME280_temperature;BME280_humidity;BME280_pressure;Samples;Min_cycle;Max_cycle;Signal;HPM_P1;HPM_P2
2024/01/15 00:08:42;;;;;;;20.20;10.30;;;;;;;3.42;96.68;97902.67;682308;1274;138972;-85
2024/01/15 00:23:46;;;;;;;9.60;5.90;;;;;;;3.39;97.06;97877.67;682215;1271;139634;-85
2024/01/15 00:38:51;;;;;;;29.50;14.80;;;;;;;3.36;97.66;97853.33;682351;1262;138418;-84
2024/01/15 00:53:55;;;;;;;18.10;10.60;;;;;;;3.41;97.00;97824.40;682248;1260;139522;-85
2024/01/15 01:08:58;;;;;;;14.50;9.50;;;;;;;3.40;97.01;97806.61;682181;1260;139015;-85
2024/01/15 01:24:02;;;;;;;18.30;10.80;;;;;;;3.27;98.60;97783.21;682191;1264;138563;-85
2024/01/15 01:39:06;;;;;;;25.30;13.70;;;;;;;3.23;99.61;97758.69;682305;1259;138462;-84
2024/01/15 01:54:13;;;;;;;23.10;12.50;;;;;;;3.33;99.74;97734.86;682151;1260;138563;-86
2024/01/15 02:09:18;;;;;;;26.00;14.00;;;;;;;3.28;99.63;97703.20;682135;1263;138909;-85
2024/01/15 02:24:21;;;;;;;26.40;13.10;;;;;;;3.30;99.94;97680.93;681984;1265;138682;-85
2024/01/15 02:39:28;;;;;;;21.20;10.30;;;;;;;3.36;99.43;97653.41;682100;1265;139342;-85
2024/01/15 02:54:37;;;;;;;19.30;10.50;;;;;;;3.36;98.70;97623.11;682132;1263;138852;-84
2024/01/15 03:09:42;;;;;;;22.70;12.50;;;;;;;3.20;99.63;97596.42;682128;1260;138762;-85
2024/01/15 03:24:46;;;;;;;23.80;12.00;;;;;;;3.11;100.00;97581.63;681977;1264;139929;-83
2024/01/15 03:39:50;;;;;;;29.00;14.50;;;;;;;3.21;100.00;97561.38;682228;1259;139185;-83
2024/01/15 03:54:54;;;;;;;26.00;12.70;;;;;;;3.31;99.99;97553.13;682100;1263;139668;-84
2024/01/15 04:09:57;;;;;;;22.40;12.10;;;;;;;3.31;99.85;97534.27;682162;1265;138762;-84
2024/01/15 04:25:02;;;;;;;21.20;11.40;;;;;;;3.29;99.43;97502.45;682110;1265;139052;-84
2024/01/15 04:40:06;;;;;;;19.20;10.70;;;;;;;3.32;98.85;97475.02;682180;1263;139283;-84
2024/01/15 04:55:10;;;;;;;22.80;11.20;;;;;;;3.08;99.78;97454.77;681928;1265;139724;-84
2024/01/15 05:10:15;;;;;;;25.00;11.90;;;;;;;2.98;100.00;97431.98;682173;1260;138550;-83
2024/01/15 05:25:18;;;;;;;28.70;13.90;;;;;;;2.87;100.00;97407.67;681971;1265;139065;-84
2024/01/15 05:40:22;;;;;;;26.00;12.20;;;;;;;2.93;100.00;97388.27;682003;1263;138602;-82
2024/01/15 05:55:25;;;;;;;25.20;12.90;;;;;;;2.77;100.00;97387.18;682003;1264;139017;-83
2024/01/15 06:10:29;;;;;;;16.30;7.70;;;;;;;2.72;100.00;97377.28;682221;1261;138842;-83
2024/01/15 06:25:32;;;;;;;14.30;7.70;;;;;;;2.77;100.00;97388.22;682027;1269;138544;-82
2024/01/15 06:40:36;;;;;;;17.90;6.50;;;;;;;2.74;99.59;97391.54;682057;1265;138771;-82
2024/01/15 06:55:40;;;;;;;16.30;7.30;;;;;;;2.94;97.21;97404.72;682116;1262;138309;-82
2024/01/15 07:10:44;;;;;;;14.70;7.30;;;;;;;2.84;95.66;97404.73;682248;1264;138373;-81
2024/01/15 07:25:49;;;;;;;21.00;8.40;;;;;;;2.77;94.55;97418.79;681905;1263;168867;-81
2024/01/15 07:40:53;;;;;;;21.90;10.90;;;;;;;2.78;93.84;97415.45;682285;1270;138414;-82
2024/01/15 07:55:58;;;;;;;28.30;14.10;;;;;;;2.86;93.38;97417.30;682178;1263;139088;-83
2024/01/15 08:11:03;;;;;;;36.30;15.80;;;;;;;2.74;93.61;97420.56;682273;1260;138744;-83
2024/01/15 08:26:08;;;;;;;10.00;5.50;;;;;;;2.82;94.23;97404.05;682207;1260;138464;-81
2024/01/15 08:41:14;;;;;;;28.90;14.10;;;;;;;2.86;93.87;97401.21;682245;1261;139912;-81
2024/01/15 08:56:19;;;;;;;24.90;15.00;;;;;;;3.04;92.79;97390.98;682224;1263;138409;-82
2024/01/15 09:11:24;;;;;;;25.10;12.70;;;;;;;3.02;91.97;97390.33;682197;1264;139965;-81
2024/01/15 09:26:30;;;;;;;32.90;13.70;;;;;;;3.14;91.92;97387.29;682354;1260;139456;-81
2024/01/15 09:41:36;;;;;;;26.00;9.90;;;;;;;3.73;90.14;97389.27;682063;1264;139020;-80
2024/01/15 09:56:40;;;;;;;16.30;8.30;;;;;;;3.77;87.36;97381.86;682601;1260;138737;-83
2024/01/15 10:11:45;;;;;;;19.50;6.10;;;;;;;3.47;86.87;97363.55;682368;1263;138700;-82
2024/01/15 10:26:49;;;;;;;21.50;16.80;;;;;;;3.68;86.09;97346.85;682420;1260;138923;-80
2024/01/15 10:41:53;;;;;;;14.80;8.00;;;;;;;4.04;84.47;97325.49;682093;1264;138507;-81
2024/01/15 10:56:57;;;;;;;18.70;8.80;;;;;;;3.39;86.71;97322.52;682080;1261;138398;-80
2024/01/15 11:12:13;;;;;;;34.30;15.00;;;;;;;3.37;90.05;97310.64;681766;1263;139089;-80
2024/01/15 11:27:47;;;;;;;44.00;24.10;;;;;;;3.56;89.65;97316.39;682104;1259;138454;-81
2024/01/15 11:42:52;;;;;;;40.30;19.60;;;;;;;4.10;85.99;97300.71;682150;1259;138541;-79
2024/01/15 11:57:57;;;;;;;23.00;12.30;;;;;;;4.27;82.72;97294.31;682069;1264;138615;-81
2024/01/15 12:13:15;;;;;;;23.40;12.80;;;;;;;3.50;83.21;97294.83;682020;1260;139131;-81
2024/01/15 12:28:22;;;;;;;12.20;4.90;;;;;;;3.41;84.56;97283.63;682230;1263;138537;-81
2024/01/15 12:43:26;;;;;;;11.80;5.50;;;;;;;3.43;83.30;97274.23;682094;1265;138447;-82
2024/01/15 12:58:31;;;;;;;12.70;7.30;;;;;;;3.64;82.27;97258.73;682215;1260;141040;-80
2024/01/15 13:13:36;;;;;;;19.40;7.50;;;;;;;3.28;83.10;97266.71;682130;1259;138637;-79
2024/01/15 13:28:39;;;;;;;16.70;6.90;;;;;;;2.80;88.13;97277.54;682152;1263;139055;-79
2024/01/15 13:43:46;;;;;;;18.10;6.80;;;;;;;2.73;82.55;97293.09;682187;1264;138483;-80
2024/01/15 13:58:51;;;;;;;8.00;4.00;;;;;;;2.87;81.02;97283.09;682409;1260;138394;-81
2024/01/15 14:13:56;;;;;;;6.30;3.90;;;;;;;2.61;79.55;97288.79;682323;1263;138180;-83
2024/01/15 14:28:59;;;;;;;9.20;3.80;;;;;;;2.34;77.83;97301.25;682473;1260;138672;-81
2024/01/15 14:44:03;;;;;;;43.70;13.90;;;;;;;2.31;77.44;97311.33;682338;1262;138759;-81
2024/01/15 14:59:07;;;;;;;65.00;18.70;;;;;;;2.17;76.64;97334.04;682384;1263;139952;-81
2024/01/15 15:14:14;;;;;;;23.70;10.70;;;;;;;2.24;75.58;97344.48;682014;1266;139059;-81
2024/01/15 15:29:17;;;;;;;16.80;6.80;;;;;;;2.38;74.89;97365.77;682166;1264;138483;-82
2024/01/15 15:44:21;;;;;;;59.40;18.60;;;;;;;2.23;74.09;97379.23;682391;1264;138168;-83
2024/01/15 15:59:25;;;;;;;23.90;8.50;;;;;;;2.10;72.55;97414.19;682221;1260;138714;-84
2024/01/15 16:14:31;;;;;;;40.10;13.40;;;;;;;1.82;72.26;97421.73;682301;1263;138211;-83
2024/01/15 16:29:35;;;;;;;25.50;8.60;;;;;;;1.82;72.11;97428.81;682131;1259;140142;-83
2024/01/15 16:44:39;;;;;;;62.30;19.20;;;;;;;1.76;71.93;97435.58;682335;1262;138690;-81
2024/01/15 16:59:43;;;;;;;86.90;24.00;;;;;;;1.71;71.77;97443.41;682298;1263;139504;-83
2024/01/15 17:14:47;;;;;;;31.70;9.20;;;;;;;1.63;71.66;97461.75;682373;1262;139294;-80
2024/01/15 17:29:52;;;;;;;57.50;18.90;;;;;;;1.73;71.45;97483.89;682172;1262;138361;-80
2024/01/15 17:44:56;;;;;;;35.10;10.80;;;;;;;1.62;72.43;97503.24;682067;1264;138457;-80
2024/01/15 18:00:00;;;;;;;45.20;12.30;;;;;;;1.57;72.93;97522.04;682193;1266;138784;-81
2024/01/15 18:15:10;;;;;;;47.20;14.20;;;;;;;1.58;73.28;97539.29;682207;1263;139228;-81
2024/01/15 18:30:15;;;;;;;35.80;14.20;;;;;;;1.56;74.37;97561.66;682336;1265;139296;-81
2024/01/15 18:45:22;;;;;;;27.10;10.60;;;;;;;1.49;74.60;97581.92;682301;1260;138890;-80
2024/01/15 19:00:26;;;;;;;37.70;14.50;;;;;;;1.34;75.79;97611.80;681995;1264;140226;-83
2024/01/15 19:15:29;;;;;;;25.80;8.80;;;;;;;1.31;75.95;97637.73;682055;1260;139539;-79
2024/01/15 19:30:33;;;;;;;15.00;6.90;;;;;;;1.21;76.24;97656.14;682214;1263;160176;-80
2024/01/15 19:45:37;;;;;;;17.50;7.40;;;;;;;1.16;76.10;97680.19;682171;1265;140141;-79
2024/01/15 20:00:41;;;;;;;46.30;16.50;;;;;;;1.10;76.51;97715.67;682059;1265;139441;-79
2024/01/15 20:15:45;;;;;;;47.00;16.80;;;;;;;1.00;77.30;97749.82;682334;1266;139816;-80
2024/01/15 20:30:49;;;;;;;25.00;8.50;;;;;;;1.08;77.28;97786.96;682128;1263;139152;-80
2024/01/15 20:45:53;;;;;;;114.30;39.10;;;;;;;1.05;76.29;97828.34;682317;1266;141188;-81
2024/01/15 21:01:00;;;;;;;27.00;11.40;;;;;;;0.73;74.44;97857.85;682218;1266;139143;-81
2024/01/15 21:16:06;;;;;;;18.50;10.70;;;;;;;0.56;73.20;97902.40;682381;1273;138922;-81
2024/01/15 21:31:10;;;;;;;11.80;5.80;;;;;;;0.26;72.90;97951.70;682201;1276;139787;-79
2024/01/15 21:46:14;;;;;;;14.80;5.50;;;;;;;0.25;72.54;97985.13;682168;1264;138990;-81
2024/01/15 22:01:18;;;;;;;5.40;2.20;;;;;;;0.21;71.84;98018.19;682200;1263;139290;-79
2024/01/15 22:16:22;;;;;;;4.00;1.70;;;;;;;0.18;71.08;98051.04;682317;1263;140312;-80
2024/01/15 22:31:26;;;;;;;7.10;3.20;;;;;;;0.20;71.01;98087.35;682156;1263;139756;-80
2024/01/15 22:46:30;;;;;;;8.30;3.00;;;;;;;0.15;71.01;98127.10;682238;1265;138433;-80
2024/01/15 23:01:34;;;;;;;7.70;3.30;;;;;;;0.03;70.95;98147.14;682032;1266;139326;-81
2024/01/15 23:16:37;;;;;;;8.00;4.20;;;;;;;-0.14;69.95;98172.54;682198;1263;138559;-80
2024/01/15 23:31:44;;;;;;;4.70;2.70;;;;;;;-0.10;69.27;98196.61;682070;1263;139414;-80
2024/01/15 23:46:49;;;;;;;7.70;3.80;;;;;;;-0.29;68.01;98213.16;682275;1265;139896;-79
